Time;durP1;ratioP1;P1;durP2;ratioP2;P2;SDS_P1;SDS_P2;PMS_P1;PMS_P2;Temp;Humidity;BMP_temperature;BMP_pressure;BME280_temperature;BME280_humidity;BME280_pressure;Samples;Min_cycle;Max_cycle;Signal;HPM_P1;HPM_P2
2022/09/24 00:00:22;;;;;;;0.40;0.40;;;;;;;3.28;67.25;93776.00;5101069;28;20097;-35
2022/09/24 00:02:48;;;;;;;0.70;0.70;;;;;;;3.18;67.46;93772.00;5093496;28;20069;-35
2022/09/24 00:05:13;;;;;;;1.58;1.48;;;;;;;3.14;67.38;93776.22;5089946;28;20020;-35
2022/09/24 00:07:39;;;;;;;1.48;1.38;;;;;;;3.00;68.11;93773.19;5089326;28;20039;-35
2022/09/24 00:10:05;;;;;;;2.13;1.50;;;;;;;3.09;67.80;93769.50;5090966;28;20028;-35
2022/09/24 00:12:31;;;;;;;0.68;0.68;;;;;;;3.00;67.95;93767.00;5097113;28;20606;-35
2022/09/24 00:14:56;;;;;;;0.63;0.63;;;;;;;2.89;68.35;93767.72;5091653;28;20028;-35
2022/09/24 00:17:21;;;;;;;0.68;0.68;;;;;;;3.08;67.64;93762.53;5093052;28;20020;-35
2022/09/24 00:19:47;;;;;;;0.75;0.75;;;;;;;3.18;67.80;93763.06;5090343;28;20032;-35
2022/09/24 00:22:12;;;;;;;1.95;1.42;;;;;;;3.05;67.38;93764.28;5090130;28;20392;-35
2022/09/24 00:27:22;;;;;;;0.73;0.73;;;;;;;3.08;67.62;93766.03;5070220;28;20526;-35
2022/09/24 00:29:47;;;;;;;0.63;0.63;;;;;;;3.15;67.92;93761.31;5104864;28;20035;-35
2022/09/24 00:32:12;;;;;;;2.05;1.85;;;;;;;3.06;67.92;93763.03;5110449;28;20467;-35
2022/09/24 00:34:38;;;;;;;0.57;0.47;;;;;;;2.85;69.31;93753.56;5098527;28;20028;-35
2022/09/24 00:37:03;;;;;;;0.98;0.73;;;;;;;2.86;68.77;93757.03;5090378;28;20492;-35
2022/09/24 00:39:29;;;;;;;1.35;1.35;;;;;;;2.77;67.92;93741.63;5089125;28;20032;-35
2022/09/24 00:41:54;;;;;;;0.30;0.30;;;;;;;2.95;67.59;93760.28;5089940;28;20032;-35
2022/09/24 00:44:45;;;;;;;0.32;0.32;;;;;;;3.01;66.81;93757.59;5090185;28;20024;-35
2022/09/24 00:47:31;;;;;;;0.85;0.85;;;;;;;2.94;67.84;93763.50;5090227;28;20032;-35
2022/09/24 00:50:09;;;;;;;0.98;0.98;;;;;;;2.91;67.56;93764.50;5089914;28;20111;-36
2022/09/24 00:52:38;;;;;;;0.38;0.38;;;;;;;2.57;69.00;93752.72;5091040;28;20469;-35
2022/09/24 00:55:04;;;;;;;;;;;;;;;2.71;68.59;93764.66;5090817;28;20038;-35
2022/09/24 00:57:30;;;;;;;0.40;0.40;;;;;;;2.77;67.79;93747.09;5088952;28;20010;-35
2022/09/24 00:59:55;;;;;;;0.38;0.38;;;;;;;2.72;68.00;93755.25;5090212;28;20058;-36
2022/09/24 01:02:21;;;;;;;0.30;0.30;;;;;;;2.74;68.13;93750.06;5088313;28;20084;-35
2022/09/24 01:04:47;;;;;;;2.35;2.17;;;;;;;2.52;69.44;93753.44;5089818;28;20036;-35
2022/09/24 01:07:13;;;;;;;0.47;0.47;;;;;;;2.30;71.55;93750.63;5090076;28;20077;-35
2022/09/24 01:09:38;;;;;;;0.60;0.60;;;;;;;2.42;70.93;93740.53;5089521;28;20097;-35
2022/09/24 01:12:27;;;;;;;1.25;1.25;;;;;;;2.39;70.58;93739.50;5089006;28;20106;-35
2022/09/24 01:15:01;;;;;;;0.93;0.93;;;;;;;2.45;71.03;93747.72;5090062;28;20479;-35
2022/09/24 01:17:45;;;;;;;0.32;0.32;;;;;;;2.25;71.46;93740.44;5087013;28;20084;-35
2022/09/24 01:20:29;;;;;;;0.30;0.30;;;;;;;2.21;71.53;93746.13;5088427;28;20032;-35
2022/09/24 01:23:03;;;;;;;1.25;1.25;;;;;;;2.38;71.35;93746.22;5089996;28;20081;-35
2022/09/24 01:25:28;;;;;;;0.93;0.93;;;;;;;2.44;70.74;93738.81;5089361;28;20020;-35
2022/09/24 01:28:09;;;;;;;0.50;0.50;;;;;;;2.45;70.95;93743.00;5093231;28;20111;-35
2022/09/24 01:30:37;;;;;;;0.50;0.50;;;;;;;2.55;69.53;93746.28;5073038;28;20024;-45
2022/09/24 01:33:12;;;;;;;1.92;1.83;;;;;;;2.49;69.15;93745.50;5073370;28;20099;-34
2022/09/24 01:35:41;;;;;;;1.65;1.23;;;;;;;2.52;68.40;93742.53;5091145;28;20093;-34
2022/09/24 01:38:25;;;;;;;;;;;;;;;2.53;69.10;93741.31;5092392;28;20487;-34
2022/09/24 01:40:51;;;;;;;1.67;1.58;;;;;;;2.37;68.72;93743.97;5090391;28;20006;-35
2022/09/24 01:43:20;;;;;;;0.88;0.88;;;;;;;2.37;68.73;93750.16;5091574;28;20054;-35
2022/09/24 01:45:45;;;;;;;0.70;0.70;;;;;;;2.29;69.03;93749.13;5093388;28;20469;-35
2022/09/24 01:48:11;;;;;;;1.70;1.60;;;;;;;2.33;68.44;93760.56;5091766;28;20035;-35
2022/09/24 01:50:47;;;;;;;0.50;0.50;;;;;;;2.14;69.87;93765.63;5092055;28;20031;-34
2022/09/24 01:53:17;;;;;;;3.50;0.95;;;;;;;2.11;69.66;93754.97;5100060;28;20027;-35
2022/09/24 01:55:48;;;;;;;0.60;0.60;;;;;;;2.18;69.61;93751.81;5113475;28;20028;-35
2022/09/24 01:58:20;;;;;;;1.05;1.05;;;;;;;2.22;69.65;93755.03;5111861;28;20019;-34
2022/09/24 02:00:47;;;;;;;0.63;0.57;;;;;;;2.20;69.58;93752.06;5122220;27;20024;-34
2022/09/24 02:03:35;;;;;;;2.67;0.90;;;;;;;2.26;69.73;93756.31;5091819;28;20424;-35
2022/09/24 02:06:04;;;;;;;1.25;1.20;;;;;;;2.39;69.55;93761.31;5091718;28;20031;-35
2022/09/24 02:08:38;;;;;;;1.02;1.02;;;;;;;2.36;70.28;93753.38;5092716;28;20051;-35
2022/09/24 02:11:05;;;;;;;3.63;3.33;;;;;;;2.29;69.76;93755.34;5092563;28;20400;-34
2022/09/24 02:13:39;;;;;;;2.40;2.22;;;;;;;2.25;71.65;93759.53;5091094;28;20027;-35
2022/09/24 02:16:07;;;;;;;1.63;1.60;;;;;;;2.20;71.65;93735.72;5091223;28;20031;-35
2022/09/24 02:18:36;;;;;;;1.23;1.23;;;;;;;2.42;71.74;93757.63;5091356;28;20026;-35
2022/09/24 02:21:06;;;;;;;0.77;0.77;;;;;;;2.38;71.55;93767.25;5125150;27;20032;-34
2022/09/24 02:23:36;;;;;;;0.60;0.60;;;;;;;2.45;71.68;93761.34;5125280;27;20475;-36
2022/09/24 02:26:01;;;;;;;;;;;;;;;2.49;71.96;93762.59;5091469;28;20051;-35
2022/09/24 02:28:27;;;;;;;2.63;2.45;;;;;;;2.45;73.75;93772.97;5091934;28;19943;-36
2022/09/24 02:31:03;;;;;;;1.58;1.35;;;;;;;2.52;72.59;93764.34;5090919;28;20058;-36
2022/09/24 02:36:16;;;;;;;2.20;1.98;;;;;;;2.56;71.74;93783.19;5091433;28;20519;-35
2022/09/24 02:38:41;;;;;;;1.90;1.77;;;;;;;2.59;71.96;93782.22;5090484;28;20614;-36
2022/09/24 02:41:07;;;;;;;1.33;1.33;;;;;;;2.36;72.99;93783.34;5092022;28;20035;-36
2022/09/24 02:43:35;;;;;;;1.02;1.02;;;;;;;2.40;72.90;93787.34;5104315;28;20415;-36
2022/09/24 02:46:01;;;;;;;2.03;1.92;;;;;;;2.56;71.16;93780.47;5071582;28;20039;-36
2022/09/24 02:48:26;;;;;;;1.55;1.48;;;;;;;2.54;70.94;93780.94;5071851;28;20040;-36
2022/09/24 02:50:52;;;;;;;2.72;2.53;;;;;;;2.35;72.13;93782.59;5091935;28;20051;-36
2022/09/24 02:53:18;;;;;;;0.85;0.85;;;;;;;2.28;72.27;93780.31;5099827;28;20709;-36
2022/09/24 02:55:44;;;;;;;1.38;1.27;;;;;;;2.26;73.02;93782.78;5110846;28;20106;-36
2022/09/24 02:58:09;;;;;;;0.90;0.70;;;;;;;2.30;72.59;93784.06;5111877;28;20027;-36
2022/09/24 03:00:35;;;;;;;0.40;0.40;;;;;;;2.33;71.79;93793.25;5092580;28;20023;-36
2022/09/24 03:03:00;;;;;;;0.57;0.57;;;;;;;2.38;71.54;93795.25;5091286;28;20679;-36
2022/09/24 03:05:25;;;;;;;1.58;1.20;;;;;;;2.24;71.88;93790.72;5091503;28;20553;-34
2022/09/24 03:07:51;;;;;;;1.15;1.15;;;;;;;2.20;71.72;93787.47;5089609;28;20040;-34
2022/09/24 03:10:16;;;;;;;0.60;0.60;;;;;;;2.08;72.08;93789.38;5091387;28;20491;-34
2022/09/24 03:12:42;;;;;;;0.50;0.50;;;;;;;2.13;72.16;93799.56;5091519;28;20035;-34
2022/09/24 03:15:08;;;;;;;1.50;1.20;;;;;;;2.27;71.78;93797.91;5091560;28;20280;-34
2022/09/24 03:17:34;;;;;;;1.88;1.17;;;;;;;2.15;71.88;93788.16;5091150;28;20061;-34
2022/09/24 03:20:00;;;;;;;0.30;0.30;;;;;;;2.08;70.94;93783.19;5091040;28;20032;-34
2022/09/24 03:22:25;;;;;;;1.60;1.50;;;;;;;2.15;71.36;93788.94;5091308;28;20021;-34
2022/09/24 03:24:50;;;;;;;1.30;1.30;;;;;;;2.08;71.41;93796.81;5090842;28;20721;-35
2022/09/24 03:27:16;;;;;;;4.28;3.70;;;;;;;1.95;71.98;93801.91;5091275;28;20472;-35
2022/09/24 03:32:26;;;;;;;1.38;1.33;;;;;;;1.97;70.77;93799.47;5091203;28;20031;-35
2022/09/24 03:34:51;;;;;;;4.75;1.63;;;;;;;1.92;70.48;93800.16;5090829;28;20028;-35
2022/09/24 03:37:17;;;;;;;4.88;1.63;;;;;;;1.73;71.32;93809.91;5090893;28;20024;-35
2022/09/24 03:39:42;;;;;;;1.33;1.33;;;;;;;1.75;71.28;93821.81;5090779;28;20024;-35
2022/09/24 03:42:08;;;;;;;1.40;1.30;;;;;;;1.75;70.60;93804.72;5090644;28;20032;-35
2022/09/24 03:44:33;;;;;;;0.40;0.40;;;;;;;1.51;70.91;93792.19;5089725;28;20039;-35
2022/09/24 03:46:59;;;;;;;7.03;0.95;;;;;;;1.66;70.55;93813.81;5091087;28;20069;-35
2022/09/24 03:49:24;;;;;;;0.95;0.95;;;;;;;1.70;70.08;93814.34;5090242;28;20454;-35
2022/09/24 03:51:50;;;;;;;0.70;0.70;;;;;;;1.72;69.87;93811.88;5090923;28;20621;-35
2022/09/24 03:54:15;;;;;;;2.67;2.47;;;;;;;1.62;70.31;93823.44;5105383;28;20064;-35
2022/09/24 03:56:41;;;;;;;1.45;1.45;;;;;;;1.35;72.39;93824.66;5111203;28;20031;-35
2022/09/24 03:59:09;;;;;;;3.95;3.67;;;;;;;1.60;71.33;93829.38;5110988;28;20028;-36
2022/09/24 04:01:36;;;;;;;2.42;2.30;;;;;;;1.76;70.65;93828.75;5105908;28;20545;-36
2022/09/24 04:04:02;;;;;;;2.47;1.27;;;;;;;1.61;70.90;93830.84;5089973;28;20039;-35
2022/09/24 04:06:28;;;;;;;8.60;3.13;;;;;;;1.51;70.86;93830.28;5090860;28;20024;-35
2022/09/24 04:08:54;;;;;;;0.40;0.40;;;;;;;1.38;72.00;93831.88;5090629;28;20384;-35
2022/09/24 04:11:20;;;;;;;2.13;2.03;;;;;;;1.34;72.34;93834.78;5090414;28;20034;-36
2022/09/24 04:13:45;;;;;;;0.70;0.70;;;;;;;1.35;71.87;93835.53;5090452;28;20472;-36
2022/09/24 04:16:11;;;;;;;0.43;0.43;;;;;;;1.38;71.74;93837.31;5090608;28;20051;-36
2022/09/24 04:18:38;;;;;;;0.60;0.60;;;;;;;1.29;71.29;93834.75;5090677;28;20028;-36
2022/09/24 04:21:04;;;;;;;2.30;2.17;;;;;;;1.26;71.37;93836.44;5089636;28;20035;-36
2022/09/24 04:23:30;;;;;;;1.30;1.30;;;;;;;1.22;71.27;93838.63;5090327;28;20020;-36
2022/09/24 04:25:56;;;;;;;0.82;0.82;;;;;;;1.20;71.79;93834.91;5090215;28;20081;-35
2022/09/24 04:28:23;;;;;;;1.10;1.05;;;;;;;1.17;71.87;93839.31;5090507;28;20084;-35
2022/09/24 04:30:48;;;;;;;1.90;1.80;;;;;;;1.17;71.58;93844.03;5077996;28;20423;-35
2022/09/24 04:33:14;;;;;;;1.80;1.70;;;;;;;1.14;71.53;93850.41;5083186;28;20024;-36
2022/09/24 04:35:39;;;;;;;3.20;1.75;;;;;;;1.23;71.68;93850.25;5082140;28;20077;-35
2022/09/24 04:38:05;;;;;;;2.03;1.92;;;;;;;1.33;70.50;93849.63;5069932;28;20090;-35
2022/09/24 04:40:31;;;;;;;1.70;1.40;;;;;;;1.38;70.48;93846.22;5084347;28;20024;-35
2022/09/24 04:42:56;;;;;;;0.95;0.95;;;;;;;1.43;70.81;93855.63;5090154;28;20036;-36
2022/09/24 04:45:23;;;;;;;3.40;2.95;;;;;;;1.05;72.28;93835.00;5090098;28;20059;-34
2022/09/24 04:47:52;;;;;;;1.40;1.40;;;;;;;1.29;72.34;93854.53;5089836;28;20127;-35
2022/09/24 04:50:18;;;;;;;0.68;0.68;;;;;;;1.27;72.47;93829.78;5079878;28;20023;-36
2022/09/24 04:52:44;;;;;;;1.73;1.67;;;;;;;1.56;71.66;93858.75;5080521;28;20472;-36
2022/09/24 04:55:09;;;;;;;0.95;0.95;;;;;;;1.57;72.42;93854.81;5103852;28;20106;-36
2022/09/24 04:57:35;;;;;;;0.68;0.68;;;;;;;1.67;72.79;93850.69;5069825;28;20557;-35
2022/09/24 05:00:07;;;;;;;2.67;2.45;;;;;;;1.85;73.08;93858.50;5079881;28;20039;-35
2022/09/24 05:02:32;;;;;;;14.32;2.28;;;;;;;1.82;71.76;93864.19;5089843;28;20058;-35
2022/09/24 05:04:58;;;;;;;1.58;1.50;;;;;;;1.79;71.56;93860.44;5089836;28;20107;-35
2022/09/24 05:07:23;;;;;;;1.05;1.05;;;;;;;1.96;71.32;93861.34;5089792;28;20473;-36
2022/09/24 05:09:48;;;;;;;0.93;0.93;;;;;;;1.82;71.65;93859.47;5093280;28;20103;-35
2022/09/24 05:12:14;;;;;;;1.80;1.70;;;;;;;1.75;71.74;93864.63;5093303;28;20020;-35
2022/09/24 05:14:39;;;;;;;1.58;1.50;;;;;;;1.88;72.03;93865.72;5088689;28;20033;-35
2022/09/24 05:17:05;;;;;;;2.30;2.17;;;;;;;1.91;72.02;93859.31;5091470;28;20155;-35
2022/09/24 05:19:30;;;;;;;1.35;1.35;;;;;;;2.04;71.63;93867.06;5093444;28;20028;-35
2022/09/24 05:21:56;;;;;;;1.00;1.00;;;;;;;2.02;72.61;93858.63;5092032;28;20035;-35
2022/09/24 05:24:21;;;;;;;1.23;1.13;;;;;;;1.97;72.96;93862.09;5092795;28;20032;-35
2022/09/24 05:29:30;;;;;;;0.60;0.60;;;;;;;2.02;72.73;93862.13;5086439;28;20035;-35
2022/09/24 05:31:56;;;;;;;1.30;1.23;;;;;;;2.20;73.03;93858.28;5091295;28;20032;-35
2022/09/24 05:34:21;;;;;;;0.60;0.60;;;;;;;2.24;72.28;93865.00;5093189;28;20016;-35
2022/09/24 05:36:47;;;;;;;0.52;0.52;;;;;;;2.29;73.02;93864.31;5091550;28;20503;-36
2022/09/24 05:39:13;;;;;;;1.63;1.60;;;;;;;2.39;73.42;93862.13;5089704;28;20035;-35
2022/09/24 05:41:39;;;;;;;0.40;0.40;;;;;;;2.65;73.36;93872.94;5092037;28;20073;-36
2022/09/24 05:44:05;;;;;;;0.85;0.85;;;;;;;2.88;72.42;93863.66;5091914;28;20556;-36
2022/09/24 05:46:31;;;;;;;0.63;0.63;;;;;;;3.00;71.68;93846.09;5089925;28;20035;-36
2022/09/24 05:48:57;;;;;;;3.08;2.60;;;;;;;3.59;70.67;93870.59;5092580;28;20491;-36
2022/09/24 05:51:22;;;;;;;5.20;4.65;;;;;;;3.83;69.61;93865.41;5092400;28;20028;-36
2022/09/24 05:53:49;;;;;;;6.18;3.40;;;;;;;4.11;68.52;93871.66;5092488;28;20012;-35
2022/09/24 05:56:15;;;;;;;1.67;1.63;;;;;;;4.10;67.55;93864.69;5092221;28;20035;-36
2022/09/24 05:58:40;;;;;;;0.60;0.60;;;;;;;3.97;69.00;93871.88;5091649;28;20499;-36
2022/09/24 06:01:06;;;;;;;0.68;0.68;;;;;;;3.90;68.94;93864.91;5091844;28;20032;-36
2022/09/24 06:03:31;;;;;;;0.55;0.55;;;;;;;3.83;70.56;93862.69;5091684;28;20039;-36
2022/09/24 06:06:02;;;;;;;0.50;0.50;;;;;;;3.74;71.85;93844.56;5092538;28;20055;-36
2022/09/24 06:08:29;;;;;;;6.25;1.75;;;;;;;3.89;72.73;93866.16;5092300;28;20028;-36
2022/09/24 06:11:04;;;;;;;1.85;1.75;;;;;;;4.02;72.96;93874.63;5091466;28;20055;-36
2022/09/24 06:13:31;;;;;;;2.67;2.55;;;;;;;4.21;72.72;93867.41;5091252;28;20031;-36
2022/09/24 06:16:04;;;;;;;1.30;1.08;;;;;;;4.66;71.56;93872.84;5092042;28;20107;-36
2022/09/24 06:18:30;;;;;;;4.65;4.25;;;;;;;5.10;70.91;93872.72;5084998;28;20024;-35
2022/09/24 06:21:01;;;;;;;0.98;0.98;;;;;;;5.85;68.58;93877.59;5088175;28;20131;-36
2022/09/24 06:23:26;;;;;;;0.73;0.73;;;;;;;6.55;66.75;93878.81;5088149;28;20032;-36
2022/09/24 06:25:51;;;;;;;0.60;0.60;;;;;;;7.49;63.85;93875.09;5091091;28;20032;-35
2022/09/24 06:28:17;;;;;;;0.85;0.85;;;;;;;8.35;60.54;93870.91;5091879;28;20027;-36
2022/09/24 06:30:43;;;;;;;5.35;1.73;;;;;;;9.11;58.33;93875.63;5087632;28;20023;-35
2022/09/24 06:33:10;;;;;;;10.82;4.72;;;;;;;9.66;56.44;93873.03;5086211;28;20031;-36
2022/09/24 06:35:37;;;;;;;7.45;5.32;;;;;;;10.22;55.60;93867.81;5088220;28;20044;-36
2022/09/24 06:38:03;;;;;;;2.20;1.98;;;;;;;10.83;53.70;93843.53;5088179;28;20032;-37
2022/09/24 06:40:29;;;;;;;1.33;1.33;;;;;;;11.84;51.71;93868.69;5090961;28;20484;-36
2022/09/24 06:42:54;;;;;;;3.10;2.90;;;;;;;12.65;49.79;93865.94;5091241;28;20028;-36
2022/09/24 06:45:21;;;;;;;2.47;2.20;;;;;;;13.35;48.56;93857.84;5090376;28;20024;-36
2022/09/24 06:48:13;;;;;;;3.10;2.78;;;;;;;14.02;46.78;93866.53;5090830;28;20028;-36
2022/09/24 06:50:40;;;;;;;3.65;2.88;;;;;;;14.53;45.98;93868.91;5085755;28;20404;-37
2022/09/24 06:53:07;;;;;;;2.97;2.67;;;;;;;14.96;44.52;93871.22;5087366;28;20024;-36
2022/09/24 06:55:33;;;;;;;4.28;3.33;;;;;;;15.68;43.74;93871.00;5088329;28;20407;-36
2022/09/24 06:58:09;;;;;;;4.88;3.90;;;;;;;16.45;41.94;93861.16;5088198;28;20028;-36
2022/09/24 07:00:35;;;;;;;2.03;1.92;;;;;;;17.23;40.89;93869.34;5083112;28;20016;-36
2022/09/24 07:03:01;;;;;;;0.60;0.50;;;;;;;17.81;39.05;93868.19;5082587;28;20052;-37
2022/09/24 07:05:26;;;;;;;1.10;1.10;;;;;;;18.50;38.36;93871.13;5086702;28;20039;-35
2022/09/24 07:07:52;;;;;;;0.75;0.75;;;;;;;19.12;36.78;93869.22;5090533;28;20412;-37
2022/09/24 07:10:17;;;;;;;0.63;0.63;;;;;;;19.19;35.64;93873.19;5088404;28;20476;-36
2022/09/24 07:12:43;;;;;;;0.95;0.95;;;;;;;18.97;37.25;93871.63;5087372;28;20032;-36
2022/09/24 07:15:09;;;;;;;0.65;0.65;;;;;;;19.63;35.86;93846.13;5076213;28;20063;-37
2022/09/24 07:17:35;;;;;;;0.60;0.60;;;;;;;19.85;35.25;93880.50;5090076;28;20102;-36
2022/09/24 07:20:01;;;;;;;0.22;0.22;;;;;;;20.37;34.61;93863.63;5079203;28;20043;-36
2022/09/24 07:22:26;;;;;;;0.68;0.68;;;;;;;20.84;34.37;93870.09;5083144;28;20086;-37
2022/09/24 07:24:52;;;;;;;0.82;0.82;;;;;;;21.48;32.46;93862.16;5086465;28;20102;-36
2022/09/24 07:27:20;;;;;;;2.83;1.35;;;;;;;21.76;31.39;93863.84;5087499;28;20047;-36
2022/09/24 07:29:48;;;;;;;2.70;2.45;;;;;;;22.25;31.18;93862.53;5105697;28;20030;-36
2022/09/24 07:32:16;;;;;;;1.48;1.38;;;;;;;22.45;30.05;93860.13;5108633;28;20522;-36
2022/09/24 07:34:42;;;;;;;0.80;0.80;;;;;;;22.48;30.44;93859.63;5091356;28;20054;-36
2022/09/24 07:37:08;;;;;;;0.43;0.43;;;;;;;23.00;29.75;93866.75;5086882;28;20515;-36
2022/09/24 07:39:33;;;;;;;0.80;0.50;;;;;;;22.60;28.83;93854.72;5087134;28;20112;-36
2022/09/24 07:42:00;;;;;;;0.77;0.77;;;;;;;22.50;30.00;93856.91;5088293;28;20024;-36
2022/09/24 07:44:27;;;;;;;0.75;0.75;;;;;;;23.03;29.20;93848.59;5087690;28;20543;-36
2022/09/24 07:46:54;;;;;;;0.20;0.20;;;;;;;23.49;28.88;93856.75;5086247;28;20024;-36
2022/09/24 07:49:19;;;;;;;0.47;0.47;;;;;;;23.81;28.08;93852.78;5086769;28;20028;-37
2022/09/24 07:51:45;;;;;;;0.40;0.40;;;;;;;23.96;27.17;93846.50;5087377;28;20081;-37
2022/09/24 07:54:10;;;;;;;0.88;0.45;;;;;;;24.37;26.95;93848.53;5104241;28;20406;-37
2022/09/24 07:56:36;;;;;;;0.75;0.75;;;;;;;24.80;27.14;93852.81;5102691;28;20093;-37
2022/09/24 07:59:04;;;;;;;0.30;0.30;;;;;;;24.97;25.65;93850.78;5090410;28;20074;-37
2022/09/24 08:01:30;;;;;;;1.27;0.70;;;;;;;25.36;25.81;93851.19;5087088;28;20567;-37
2022/09/24 08:03:56;;;;;;;0.08;0.08;;;;;;;24.77;24.45;93840.00;5090618;28;20099;-37
2022/09/24 08:06:22;;;;;;;0.98;0.95;;;;;;;25.28;24.61;93848.72;5090492;28;20031;-37
2022/09/24 08:08:51;;;;;;;0.98;0.98;;;;;;;25.22;24.40;93847.69;5090033;28;20031;-37
2022/09/24 08:11:18;;;;;;;1.75;0.80;;;;;;;25.71;24.51;93845.00;5089678;28;20028;-37
2022/09/24 08:13:44;;;;;;;0.50;0.50;;;;;;;26.09;23.56;93852.34;5089814;28;20024;-38
2022/09/24 08:16:10;;;;;;;0.88;0.88;;;;;;;25.92;22.02;93853.00;5090662;28;20024;-38
2022/09/24 08:18:36;;;;;;;0.45;0.45;;;;;;;26.29;22.29;93848.25;5090666;28;20036;-38
2022/09/24 08:21:07;;;;;;;0.47;0.47;;;;;;;26.24;23.88;93843.81;5090309;28;20423;-38
2022/09/24 08:23:33;;;;;;;0.38;0.38;;;;;;;26.42;23.79;93832.53;5090510;28;20409;-38
2022/09/24 08:25:59;;;;;;;0.30;0.30;;;;;;;26.83;21.45;93837.75;5089339;28;20043;-38
2022/09/24 08:28:25;;;;;;;2.72;0.50;;;;;;;26.86;20.10;93848.50;5096182;28;20498;-38
2022/09/24 08:30:50;;;;;;;0.22;0.22;;;;;;;27.26;19.65;93843.69;5097857;28;20056;-38
2022/09/24 08:33:15;;;;;;;0.20;0.20;;;;;;;27.34;19.58;93852.50;5090086;28;20039;-38
2022/09/24 08:35:41;;;;;;;0.20;0.20;;;;;;;27.07;19.72;93849.31;5092387;28;20062;-37
2022/09/24 08:38:07;;;;;;;0.20;0.20;;;;;;;26.37;19.38;93841.47;5094403;28;20063;-38
2022/09/24 08:40:44;;;;;;;1.33;0.47;;;;;;;27.00;19.39;93839.84;5094329;28;20028;-38
2022/09/24 08:43:12;;;;;;;0.40;0.40;;;;;;;26.14;19.34;93842.66;5093769;28;20115;-38
2022/09/24 08:48:41;;;;;;;0.10;0.10;;;;;;;26.15;20.48;93856.16;5056250;28;20043;-36
2022/09/24 08:51:11;;;;;;;0.15;0.13;;;;;;;25.58;20.98;93838.78;5092792;28;20035;-36
2022/09/24 08:53:54;;;;;;;0.10;0.10;;;;;;;25.89;20.29;93834.47;5104916;28;20080;-36
2022/09/24 08:56:24;;;;;;;0.43;0.38;;;;;;;26.26;19.75;93843.16;5113540;28;20027;-36
2022/09/24 08:59:22;;;;;;;0.10;0.10;;;;;;;27.44;19.47;93843.69;5114727;28;20024;-36
2022/09/24 09:02:18;;;;;;;0.20;0.20;;;;;;;27.71;19.00;93840.44;5073323;28;20584;-36
2022/09/24 09:05:01;;;;;;;0.10;0.10;;;;;;;27.43;19.49;93842.94;5081769;28;20028;-36
2022/09/24 09:07:36;;;;;;;0.15;0.15;;;;;;;26.58;19.95;93850.16;5093917;28;20507;-36
2022/09/24 09:10:14;;;;;;;0.32;0.32;;;;;;;26.96;20.42;93846.06;5093926;28;20055;-36
2022/09/24 09:12:43;;;;;;;0.50;0.50;;;;;;;26.44;20.08;93824.13;5093814;28;20093;-36
2022/09/24 09:15:18;;;;;;;0.30;0.30;;;;;;;26.24;21.04;93841.00;5092226;28;20056;-36
2022/09/24 09:17:56;;;;;;;0.40;0.40;;;;;;;26.99;20.73;93844.78;5092406;28;20024;-36
2022/09/24 09:20:34;;;;;;;0.05;0.05;;;;;;;26.44;20.62;93835.44;5126791;27;20055;-36
2022/09/24 09:23:05;;;;;;;0.10;0.10;;;;;;;25.91;20.87;93823.22;5093507;28;20454;-36
2022/09/24 09:25:35;;;;;;;0.40;0.40;;;;;;;26.22;21.08;93829.59;5125107;27;20051;-36
2022/09/24 09:28:16;;;;;;;0.05;0.05;;;;;;;26.74;20.28;93810.47;5096173;28;20020;-36
2022/09/24 09:30:57;;;;;;;0.17;0.17;;;;;;;27.03;19.22;93822.25;5113829;28;20055;-36
2022/09/24 09:33:59;;;;;;;0.30;0.30;;;;;;;27.02;20.68;93828.56;5113682;28;20023;-35
2022/09/24 09:36:28;;;;;;;0.10;0.10;;;;;;;27.48;19.91;93830.34;5073220;28;20081;-36
2022/09/24 09:39:04;;;;;;;0.13;0.13;;;;;;;27.27;19.75;93827.38;5073034;28;20413;-36
2022/09/24 09:41:47;;;;;;;0.00;0.00;;;;;;;27.53;18.63;93820.63;5091819;28;20028;-36
2022/09/24 09:44:25;;;;;;;0.00;0.00;;;;;;;27.69;19.90;93826.16;5091917;28;20035;-36
2022/09/24 09:47:22;;;;;;;0.43;0.43;;;;;;;28.01;18.87;93826.63;5092138;28;20031;-36
2022/09/24 09:49:50;;;;;;;0.25;0.25;;;;;;;28.20;19.10;93825.84;5092917;28;20440;-36
2022/09/24 09:52:19;;;;;;;0.40;0.40;;;;;;;28.76;18.57;93824.94;5093566;28;20250;-36
2022/09/24 09:54:45;;;;;;;0.00;0.00;;;;;;;29.19;18.86;93829.88;5101414;28;20034;-36
2022/09/24 09:57:18;;;;;;;0.55;0.55;;;;;;;29.48;17.52;93828.59;5113229;28;20027;-36
2022/09/24 09:59:52;;;;;;;0.20;0.20;;;;;;;28.73;17.99;93788.59;5097489;28;20030;-36
2022/09/24 10:02:23;;;;;;;0.00;0.00;;;;;;;29.44;17.36;93820.69;5092577;28;20040;-36
2022/09/24 10:04:52;;;;;;;0.30;0.30;;;;;;;29.46;17.64;93825.69;5101179;28;20031;-36
2022/09/24 10:07:17;;;;;;;6.75;2.28;;;;;;;29.60;17.19;93818.31;5091388;28;20110;-36
2022/09/24 10:09:44;;;;;;;3.40;0.68;;;;;;;28.98;18.31;93811.44;5093215;28;20103;-36
2022/09/24 10:12:23;;;;;;;0.22;0.22;;;;;;;29.09;18.05;93806.78;5093213;28;20107;-35
2022/09/24 10:15:15;;;;;;;0.25;0.25;;;;;;;28.89;16.92;93789.13;5092544;28;20043;-36
2022/09/24 10:17:41;;;;;;;0.10;0.10;;;;;;;29.43;16.68;93796.47;5072318;28;20085;-36
2022/09/24 10:20:13;;;;;;;0.80;0.50;;;;;;;29.93;15.74;93782.97;5071243;28;20089;-36
2022/09/24 10:22:42;;;;;;;0.32;0.32;;;;;;;29.80;16.00;93790.44;5072332;28;20024;-36
2022/09/24 10:25:20;;;;;;;0.28;0.28;;;;;;;30.01;15.87;93791.00;5073816;28;20027;-36
2022/09/24 10:27:45;;;;;;;0.45;0.45;;;;;;;30.20;15.71;93792.94;5092766;28;20028;-36
2022/09/24 10:33:02;;;;;;;0.20;0.20;;;;;;;30.61;15.16;93776.22;5110961;28;20068;-36
2022/09/24 10:35:33;;;;;;;0.40;0.40;;;;;;;30.83;14.95;93773.16;5112854;28;20028;-36
2022/09/24 10:37:59;;;;;;;0.10;0.10;;;;;;;30.17;14.65;93777.19;5098058;28;20031;-36
2022/09/24 10:40:45;;;;;;;1.55;1.27;;;;;;;30.26;15.37;93775.97;5104328;28;20028;-36
2022/09/24 10:43:19;;;;;;;0.10;0.10;;;;;;;29.64;16.03;93760.78;5094298;28;20332;-35
2022/09/24 10:46:20;;;;;;;0.22;0.22;;;;;;;30.12;15.88;93773.50;5071974;28;20107;-36
2022/09/24 10:49:16;;;;;;;0.43;0.43;;;;;;;30.45;15.31;93763.69;5092548;28;20036;-36
2022/09/24 10:52:10;;;;;;;0.10;0.10;;;;;;;30.39;14.41;93761.41;5055654;28;20047;-36
2022/09/24 10:55:00;;;;;;;0.20;0.20;;;;;;;30.21;15.44;93758.09;5109560;28;20063;-36
2022/09/24 10:57:48;;;;;;;0.22;0.22;;;;;;;30.16;14.96;93758.63;5112005;28;20118;-36
2022/09/24 11:00:18;;;;;;;0.38;0.38;;;;;;;30.82;15.81;93751.03;5112003;28;20066;-36
2022/09/24 11:03:16;;;;;;;0.20;0.20;;;;;;;30.34;16.17;93754.16;5092060;28;20476;-36
2022/09/24 11:05:52;;;;;;;0.40;0.40;;;;;;;29.18;16.02;93755.22;5070407;28;20044;-35
2022/09/24 11:08:29;;;;;;;0.45;0.45;;;;;;;28.87;16.35;93767.00;5091497;28;20032;-35
2022/09/24 11:11:24;;;;;;;0.20;0.20;;;;;;;28.98;16.67;93757.41;5091498;28;20047;-35
2022/09/24 11:14:23;;;;;;;0.32;0.32;;;;;;;29.23;15.52;93734.03;5068948;28;20517;-36
2022/09/24 11:16:59;;;;;;;0.63;0.52;;;;;;;28.96;16.45;93765.88;5067352;28;20040;-35
2022/09/24 11:19:43;;;;;;;0.10;0.10;;;;;;;28.06;16.58;93765.75;5090924;28;20035;-35
2022/09/24 11:22:19;;;;;;;0.73;0.50;;;;;;;27.27;17.39;93776.34;5091178;28;20032;-35
2022/09/24 11:25:12;;;;;;;0.63;0.35;;;;;;;27.07;17.16;93772.78;5123706;27;20048;-35
2022/09/24 11:28:14;;;;;;;0.65;0.65;;;;;;;26.91;18.33;93770.06;5090729;28;20028;-35
2022/09/24 11:30:57;;;;;;;0.22;0.22;;;;;;;26.22;19.84;93760.91;5049320;28;20032;-35
2022/09/24 11:33:26;;;;;;;0.17;0.17;;;;;;;26.29;18.63;93760.50;5077772;28;20093;-35
2022/09/24 11:36:10;;;;;;;4.68;0.70;;;;;;;26.33;19.70;93760.66;5090770;28;20028;-35
2022/09/24 11:39:04;;;;;;;0.20;0.20;;;;;;;26.40;19.69;93746.78;5090783;28;20035;-35
2022/09/24 11:41:56;;;;;;;0.10;0.10;;;;;;;26.07;19.30;93761.69;5068402;28;20028;-35
2022/09/24 11:44:25;;;;;;;0.98;0.98;;;;;;;26.03;19.63;93756.56;5090812;28;20093;-35
2022/09/24 11:47:07;;;;;;;0.32;0.32;;;;;;;26.36;19.14;93750.16;5090893;28;20514;-35
2022/09/24 11:50:03;;;;;;;0.10;0.10;;;;;;;26.39;19.53;93751.69;5089520;28;20060;-35
2022/09/24 11:53:07;;;;;;;0.95;0.85;;;;;;;26.37;20.12;93743.13;5091399;28;20063;-35
2022/09/24 11:55:41;;;;;;;0.82;0.82;;;;;;;25.71;19.38;93743.19;5097963;28;20028;-35
2022/09/24 11:58:29;;;;;;;1.95;1.63;;;;;;;25.21;20.65;93762.19;5090575;28;20028;-36
2022/09/24 12:01:09;;;;;;;0.57;0.55;;;;;;;25.45;21.19;93751.97;5089305;28;20028;-36
2022/09/24 12:04:18;;;;;;;0.65;0.65;;;;;;;24.90;21.28;93752.97;5090825;28;20030;-35
2022/09/24 12:06:51;;;;;;;0.80;0.70;;;;;;;24.65;21.27;93742.63;5053410;28;20524;-35
2022/09/24 12:09:48;;;;;;;0.50;0.50;;;;;;;24.77;21.89;93746.06;5075036;28;20028;-35
2022/09/24 12:12:18;;;;;;;2.53;1.10;;;;;;;24.97;22.05;93727.19;5087264;28;20066;-35